Orion — JD3053 — position and weather

sailwx.info

Track history (hours):
 
Tides and Currents Weather Stations Pressure Air Temp Water Temp Dewpoint Dewpoint Depression Visibility Wind Speed Wind Dir Waves Ship Positions

Orion

Last reported at 2017-Oct-15 21:41 UTC. Time now 2017-Oct-17 22:56 UTC.
Position N 35°27' E 139°40'.

Length 30 m; draft 2.9 m.

Type: Pilot. MMSI: 431001618.

Date/timePositionNaut miles runAvg speedWind from/ knotsBaromVisibWave heightAir tempDewpointWater temp
2017-Oct-15 21:41N 35°27' E 139°40'212.2
2017-Oct-15 21:30N 35°26' E 139°42'4 8.0
2017-Oct-15 21:01N 35°23' E 139°46'611.7
2017-Oct-15 20:30N 35°17' E 139°45'612.5
2017-Oct-15 20:00N 35°11' E 139°47'1 1.4
2017-Oct-15 19:30N 35°10' E 139°47'510.3
2017-Oct-15 19:00N 35°15' E 139°45'714.5
2017-Oct-15 18:31N 35°22' E 139°42'510.5
2017-Oct-15 18:00N 35°27' E 139°40'0 0.1
2017-Oct-15 17:30N 35°27' E 139°40'0 0.0
2017-Oct-15 17:01N 35°27' E 139°40'1 0.0
2017-Oct-15 02:40N 35°27' E 139°40'212.1
2017-Oct-15 02:30N 35°26' E 139°42'5 9.1
2017-Oct-15 02:00N 35°23' E 139°46'611.5
2017-Oct-15 01:30N 35°17' E 139°46'510.9
2017-Oct-15 01:00N 35°12' E 139°47'1 2.2
2017-Oct-15 00:30N 35°10' E 139°47'612.5
2017-Oct-15 00:00N 35°16' E 139°45'713.8
2017-Oct-14 23:31N 35°23' E 139°42'4 8.4
2017-Oct-14 23:01N 35°27' E 139°40'0 0.0
2017-Oct-14 22:31N 35°27' E 139°40'0 0.0
2017-Oct-14 22:00N 35°27' E 139°40'0 0.0
2017-Oct-14 21:31N 35°27' E 139°40'0 0.0
2017-Oct-14 21:01N 35°27' E 139°40'  
2017-Oct-12 08:17N 35°27' E 139°40'311.2
2017-Oct-12 08:01N 35°28' E 139°43'3 6.2
2017-Oct-12 07:30N 35°30' E 139°45'1 2.3
2017-Oct-12 07:00N 35°31' E 139°44'5 9.5
2017-Oct-12 06:30N 35°27' E 139°40'1 1.2
2017-Oct-12 06:00N 35°27' E 139°40'0 0.0
2017-Oct-12 05:30N 35°27' E 139°40'0 0.0
2017-Oct-12 05:00N 35°27' E 139°40'0 0.0
2017-Oct-12 04:30N 35°27' E 139°40'0 0.0
2017-Oct-12 04:00N 35°27' E 139°40'0 0.0
2017-Oct-12 03:30N 35°27' E 139°40'0 0.0
2017-Oct-12 03:00N 35°27' E 139°40'0 0.0
2017-Oct-12 02:30N 35°27' E 139°40'0 0.0
2017-Oct-12 02:00N 35°27' E 139°40'0 0.0
2017-Oct-12 01:30N 35°27' E 139°40'0 0.0
2017-Oct-12 01:00N 35°27' E 139°40'1 0.2
2017-Oct-11 21:25N 35°27' E 139°41'1 0.0
2017-Oct-10 02:49N 35°27' E 139°40'2 8.1
2017-Oct-10 02:30N 35°25' E 139°42'0 0.6
2017-Oct-10 02:01N 35°25' E 139°42'0 0.3
2017-Oct-10 01:31N 35°25' E 139°42'0 0.5
2017-Oct-10 01:01N 35°25' E 139°42'0 0.1
2017-Oct-10 00:30N 35°25' E 139°42'0 0.4
2017-Oct-10 00:01N 35°25' E 139°42'0 0.2
2017-Oct-09 23:30N 35°25' E 139°43'0 0.4
2017-Oct-09 23:00N 35°25' E 139°42'0 0.5
2017-Oct-09 22:30N 35°25' E 139°42'0 0.0
2017-Oct-09 12:47N 35°25' E 139°42'2 2.7
2017-Oct-09 12:07N 35°24' E 139°40'1 7.1
2017-Oct-09 11:58N 35°24' E 139°39'1 2.3
2017-Oct-09 11:30N 35°24' E 139°38'0 0.6
2017-Oct-09 10:57N 35°24' E 139°38'0 0.2
2017-Oct-09 10:30N 35°24' E 139°38'0 0.1
2017-Oct-09 10:00N 35°24' E 139°38'0 0.1
2017-Oct-09 09:29N 35°24' E 139°38'0 0.1
2017-Oct-09 09:01N 35°24' E 139°38'0 0.1
2017-Oct-09 08:30N 35°24' E 139°38'0 0.0
2017-Oct-09 07:59N 35°24' E 139°38'0 0.2
2017-Oct-09 07:30N 35°24' E 139°38'0 0.1
2017-Oct-09 06:59N 35°24' E 139°38'0 0.2
2017-Oct-09 06:19N 35°24' E 139°38'0 0.5
2017-Oct-09 06:00N 35°24' E 139°38'0 0.1
2017-Oct-09 05:30N 35°24' E 139°38'0 0.2
2017-Oct-09 05:00N 35°24' E 139°38'4 5.3
2017-Oct-09 04:17N 35°27' E 139°41'1 0.1
2017-Oct-08 22:16N 35°27' E 139°40'312.8
2017-Oct-08 22:00N 35°24' E 139°42'714.1
2017-Oct-08 21:30N 35°17' E 139°44'4 8.1
2017-Oct-08 21:00N 35°14' E 139°46'612.0
2017-Oct-08 20:30N 35°19' E 139°43'5 9.2
2017-Oct-08 20:01N 35°23' E 139°41'1 2.0
2017-Oct-08 19:31N 35°24' E 139°42'3 6.5
2017-Oct-08 19:00N 35°27' E 139°40'0 0.0
2017-Oct-08 18:30N 35°27' E 139°40'0 0.0
2017-Oct-08 18:00N 35°27' E 139°40'0 0.0
2017-Oct-08 17:30N 35°27' E 139°40'0 0.0
2017-Oct-08 17:00N 35°27' E 139°40'0 0.0
2017-Oct-08 16:30N 35°27' E 139°40'0 0.0
2017-Oct-08 16:00N 35°27' E 139°40'1 2.7
2017-Oct-08 15:30N 35°27' E 139°41'510.6
2017-Oct-08 15:00N 35°23' E 139°45'612.0
2017-Oct-08 14:30N 35°17' E 139°46'611.9
2017-Oct-08 14:00N 35°11' E 139°47'1 1.5
2017-Oct-08 13:30N 35°11' E 139°47'510.9
2017-Oct-08 13:00N 35°16' E 139°45'714.3
2017-Oct-08 12:30N 35°22' E 139°42'5 9.2
2017-Oct-08 12:00N 35°27' E 139°40'0 0.0
2017-Oct-08 11:30N 35°27' E 139°40'0 0.0
2017-Oct-08 11:00N 35°27' E 139°40'0 0.0
2017-Oct-08 10:30N 35°27' E 139°40'0 0.0
2017-Oct-08 10:00N 35°27' E 139°40'0 0.0
2017-Oct-08 09:30N 35°27' E 139°40'0 0.0
2017-Oct-08 09:00N 35°27' E 139°40'1 0.0
2017-Oct-07 08:24N 35°27' E 139°40'613.6
2017-Oct-07 07:59N 35°25' E 139°47'510.6
2017-Oct-07 07:30N 35°20' E 139°45'611.0
2017-Oct-07 06:59N 35°15' E 139°47'5 9.9
2017-Oct-07 06:30N 35°10' E 139°46'4 8.0
2017-Oct-07 06:00N 35°14' E 139°46'612.4
2017-Oct-07 05:30N 35°20' E 139°42'713.7
2017-Oct-07 05:00N 35°26' E 139°42'2 3.1
2017-Oct-07 04:30N 35°27' E 139°40'0 0.0
2017-Oct-07 04:00N 35°27' E 139°40'0 0.0
2017-Oct-07 03:30N 35°27' E 139°40'0 0.0
2017-Oct-07 03:00N 35°27' E 139°40'0 0.0
2017-Oct-07 02:30N 35°27' E 139°40'  
Track history (hours):
 
Tides and Currents Weather Stations Pressure Air Temp Water Temp Dewpoint Dewpoint Depression Visibility Wind Speed Wind Dir Waves Ship Positions

Orion

Last reported at 2017-Oct-15 21:41 UTC. Time now 2017-Oct-17 22:56 UTC.
Position N 35°27' E 139°40'.

Length 30 m; draft 2.9 m.

Type: Pilot. MMSI: 431001618.

Date/timePositionNaut miles runAvg speedWind from/ knotsBaromVisibWave heightAir tempDewpointWater temp
2017-Oct-15 21:41N 35°27' E 139°40'212.2
2017-Oct-15 21:30N 35°26' E 139°42'4 8.0
2017-Oct-15 21:01N 35°23' E 139°46'611.7
2017-Oct-15 20:30N 35°17' E 139°45'612.5
2017-Oct-15 20:00N 35°11' E 139°47'1 1.4
2017-Oct-15 19:30N 35°10' E 139°47'510.3
2017-Oct-15 19:00N 35°15' E 139°45'714.5
2017-Oct-15 18:31N 35°22' E 139°42'510.5
2017-Oct-15 18:00N 35°27' E 139°40'0 0.1
2017-Oct-15 17:30N 35°27' E 139°40'0 0.0
2017-Oct-15 17:01N 35°27' E 139°40'1 0.0
2017-Oct-15 02:40N 35°27' E 139°40'212.1
2017-Oct-15 02:30N 35°26' E 139°42'5 9.1
2017-Oct-15 02:00N 35°23' E 139°46'611.5
2017-Oct-15 01:30N 35°17' E 139°46'510.9
2017-Oct-15 01:00N 35°12' E 139°47'1 2.2
2017-Oct-15 00:30N 35°10' E 139°47'612.5
2017-Oct-15 00:00N 35°16' E 139°45'713.8
2017-Oct-14 23:31N 35°23' E 139°42'4 8.4
2017-Oct-14 23:01N 35°27' E 139°40'0 0.0
2017-Oct-14 22:31N 35°27' E 139°40'0 0.0
2017-Oct-14 22:00N 35°27' E 139°40'0 0.0
2017-Oct-14 21:31N 35°27' E 139°40'0 0.0
2017-Oct-14 21:01N 35°27' E 139°40'  
2017-Oct-12 08:17N 35°27' E 139°40'311.2
2017-Oct-12 08:01N 35°28' E 139°43'3 6.2
2017-Oct-12 07:30N 35°30' E 139°45'1 2.3
2017-Oct-12 07:00N 35°31' E 139°44'5 9.5
2017-Oct-12 06:30N 35°27' E 139°40'1 1.2
2017-Oct-12 06:00N 35°27' E 139°40'0 0.0
2017-Oct-12 05:30N 35°27' E 139°40'0 0.0
2017-Oct-12 05:00N 35°27' E 139°40'0 0.0
2017-Oct-12 04:30N 35°27' E 139°40'0 0.0
2017-Oct-12 04:00N 35°27' E 139°40'0 0.0
2017-Oct-12 03:30N 35°27' E 139°40'0 0.0
2017-Oct-12 03:00N 35°27' E 139°40'0 0.0
2017-Oct-12 02:30N 35°27' E 139°40'0 0.0
2017-Oct-12 02:00N 35°27' E 139°40'0 0.0
2017-Oct-12 01:30N 35°27' E 139°40'0 0.0
2017-Oct-12 01:00N 35°27' E 139°40'1 0.2
2017-Oct-11 21:25N 35°27' E 139°41'1 0.0
2017-Oct-10 02:49N 35°27' E 139°40'2 8.1
2017-Oct-10 02:30N 35°25' E 139°42'0 0.6
2017-Oct-10 02:01N 35°25' E 139°42'0 0.3
2017-Oct-10 01:31N 35°25' E 139°42'0 0.5
2017-Oct-10 01:01N 35°25' E 139°42'0 0.1
2017-Oct-10 00:30N 35°25' E 139°42'0 0.4
2017-Oct-10 00:01N 35°25' E 139°42'0 0.2
2017-Oct-09 23:30N 35°25' E 139°43'0 0.4
2017-Oct-09 23:00N 35°25' E 139°42'0 0.5
2017-Oct-09 22:30N 35°25' E 139°42'0 0.0
2017-Oct-09 12:47N 35°25' E 139°42'2 2.7
2017-Oct-09 12:07N 35°24' E 139°40'1 7.1
2017-Oct-09 11:58N 35°24' E 139°39'1 2.3
2017-Oct-09 11:30N 35°24' E 139°38'0 0.6
2017-Oct-09 10:57N 35°24' E 139°38'0 0.2
2017-Oct-09 10:30N 35°24' E 139°38'0 0.1
2017-Oct-09 10:00N 35°24' E 139°38'0 0.1
2017-Oct-09 09:29N 35°24' E 139°38'0 0.1
2017-Oct-09 09:01N 35°24' E 139°38'0 0.1
2017-Oct-09 08:30N 35°24' E 139°38'0 0.0
2017-Oct-09 07:59N 35°24' E 139°38'0 0.2
2017-Oct-09 07:30N 35°24' E 139°38'0 0.1
2017-Oct-09 06:59N 35°24' E 139°38'0 0.2
2017-Oct-09 06:19N 35°24' E 139°38'0 0.5
2017-Oct-09 06:00N 35°24' E 139°38'0 0.1
2017-Oct-09 05:30N 35°24' E 139°38'0 0.2
2017-Oct-09 05:00N 35°24' E 139°38'4 5.3
2017-Oct-09 04:17N 35°27' E 139°41'1 0.1
2017-Oct-08 22:16N 35°27' E 139°40'312.8
2017-Oct-08 22:00N 35°24' E 139°42'714.1
2017-Oct-08 21:30N 35°17' E 139°44'4 8.1
2017-Oct-08 21:00N 35°14' E 139°46'612.0
2017-Oct-08 20:30N 35°19' E 139°43'5 9.2
2017-Oct-08 20:01N 35°23' E 139°41'1 2.0
2017-Oct-08 19:31N 35°24' E 139°42'3 6.5
2017-Oct-08 19:00N 35°27' E 139°40'0 0.0
2017-Oct-08 18:30N 35°27' E 139°40'0 0.0
2017-Oct-08 18:00N 35°27' E 139°40'0 0.0
2017-Oct-08 17:30N 35°27' E 139°40'0 0.0
2017-Oct-08 17:00N 35°27' E 139°40'0 0.0
2017-Oct-08 16:30N 35°27' E 139°40'0 0.0
2017-Oct-08 16:00N 35°27' E 139°40'1 2.7
2017-Oct-08 15:30N 35°27' E 139°41'510.6
2017-Oct-08 15:00N 35°23' E 139°45'612.0
2017-Oct-08 14:30N 35°17' E 139°46'611.9
2017-Oct-08 14:00N 35°11' E 139°47'1 1.5
2017-Oct-08 13:30N 35°11' E 139°47'510.9
2017-Oct-08 13:00N 35°16' E 139°45'714.3
2017-Oct-08 12:30N 35°22' E 139°42'5 9.2
2017-Oct-08 12:00N 35°27' E 139°40'0 0.0
2017-Oct-08 11:30N 35°27' E 139°40'0 0.0
2017-Oct-08 11:00N 35°27' E 139°40'0 0.0
2017-Oct-08 10:30N 35°27' E 139°40'0 0.0
2017-Oct-08 10:00N 35°27' E 139°40'0 0.0
2017-Oct-08 09:30N 35°27' E 139°40'0 0.0
2017-Oct-08 09:00N 35°27' E 139°40'1 0.0
2017-Oct-07 08:24N 35°27' E 139°40'613.6
2017-Oct-07 07:59N 35°25' E 139°47'510.6
2017-Oct-07 07:30N 35°20' E 139°45'611.0
2017-Oct-07 06:59N 35°15' E 139°47'5 9.9
2017-Oct-07 06:30N 35°10' E 139°46'4 8.0
2017-Oct-07 06:00N 35°14' E 139°46'612.4
2017-Oct-07 05:30N 35°20' E 139°42'713.7
2017-Oct-07 05:00N 35°26' E 139°42'2 3.1
2017-Oct-07 04:30N 35°27' E 139°40'0 0.0
2017-Oct-07 04:00N 35°27' E 139°40'0 0.0
2017-Oct-07 03:30N 35°27' E 139°40'0 0.0
2017-Oct-07 03:00N 35°27' E 139°40'0 0.0
2017-Oct-07 02:30N 35°27' E 139°40'  

Dump ship's entire track history